Time;durP1;ratioP1;P1;durP2;ratioP2;P2;SDS_P1;SDS_P2;PMS_P1;PMS_P2;Temp;Humidity;BMP_temperature;BMP_pressure;BME280_temperature;BME280_humidity;BME280_pressure;Samples;Min_cycle;Max_cycle;Signal;HPM_P1;HPM_P2
2021/08/22 00:00:54;;;;;;;;;;;;;;;19.25;91.53;101360.72;5062644;28;19936;-52
2021/08/22 00:03:21;;;;;;;;;;;;;;;19.24;91.37;101359.06;5062083;28;19931;-52
2021/08/22 00:05:47;;;;;;;;;;;;;;;19.18;92.52;101351.63;5077906;28;19959;-53
2021/08/22 00:08:14;;;;;;;;;;;;;;;19.19;92.13;101353.31;5076711;28;19993;-53
2021/08/22 00:10:41;;;;;;;;;;;;;;;19.22;91.31;101356.53;5078128;28;19977;-48
2021/08/22 00:13:07;;;;;;;;;;;;;;;19.21;91.75;101360.19;5080291;28;20345;-47
2021/08/22 00:15:34;;;;;;;;;;;;;;;19.22;91.86;101356.53;5080377;28;19929;-51
2021/08/22 00:18:01;;;;;;;;;;;;;;;19.24;92.00;101364.41;5060916;28;20022;-46
2021/08/22 00:20:27;;;;;;;;;;;;;;;19.21;92.04;101349.53;5062798;28;20318;-48
2021/08/22 00:22:54;;;;;;;;;;;;;;;19.20;91.89;101339.00;5083655;28;19929;-44
2021/08/22 00:25:21;;;;;;;;;;;;;;;19.25;92.19;101342.91;5080728;28;19924;-47
2021/08/22 00:27:48;;;;;;;;;;;;;;;19.21;91.59;101335.34;5082325;28;19924;-46
2021/08/22 00:30:15;;;;;;;;;;;;;;;19.18;92.16;101328.50;5082177;28;19993;-49
2021/08/22 00:32:41;;;;;;;;;;;;;;;19.17;91.41;101339.28;5078508;28;19974;-46
2021/08/22 00:35:08;;;;;;;;;;;;;;;19.18;91.44;101325.81;5052142;28;19990;-50
2021/08/22 00:37:35;;;;;;;;;;;;;;;19.18;91.47;101338.28;5074285;28;19928;-54
2021/08/22 00:40:02;;;;;;;;;;;;;;;19.16;91.22;101340.28;5061668;28;19978;-50
2021/08/22 00:42:32;;;;;;;;;;;;;;;19.15;91.58;101341.25;5062287;28;19925;-50
2021/08/22 00:45:00;;;;;;;;;;;;;;;19.07;92.55;101342.81;5078988;28;20298;-49
2021/08/22 00:47:26;;;;;;;;;;;;;;;19.05;92.64;101334.13;5061124;28;20350;-52
2021/08/22 00:49:53;;;;;;;;;;;;;;;19.05;92.74;101335.97;5082306;28;20263;-53
2021/08/22 00:52:20;;;;;;;;;;;;;;;19.02;92.33;101334.41;5080276;28;20434;-46
2021/08/22 00:54:46;;;;;;;;;;;;;;;18.98;92.95;101330.34;5061159;28;19963;-50
2021/08/22 00:57:13;;;;;;;;;;;;;;;18.99;93.19;101328.53;5075917;28;19954;-48
2021/08/22 00:59:40;;;;;;;;;;;;;;;18.98;94.12;101332.16;5079260;28;19952;-50
2021/08/22 01:02:06;;;;;;;;;;;;;;;18.98;94.21;101334.81;5064184;28;19931;-44
2021/08/22 01:04:35;;;;;;;;;;;;;;;18.98;94.47;101333.03;5064070;28;19932;-48
2021/08/22 01:07:05;;;;;;;;;;;;;;;18.99;94.73;101332.03;5066939;28;19927;-48
2021/08/22 01:09:34;;;;;;;;;;;;;;;18.99;94.99;101329.38;5084614;28;19931;-50
2021/08/22 01:12:02;;;;;;;;;;;;;;;18.97;94.88;101330.50;5065650;28;20650;-53
2021/08/22 01:14:35;;;;;;;;;;;;;;;18.96;95.07;101324.31;5085555;28;19924;-51
2021/08/22 01:17:02;;;;;;;;;;;;;;;18.95;94.87;101327.13;5047892;28;20367;-45
2021/08/22 01:19:32;;;;;;;;;;;;;;;18.96;95.38;101328.81;5064925;28;19932;-47
2021/08/22 01:21:59;;;;;;;;;;;;;;;18.94;95.25;101334.28;5084083;28;20383;-47
2021/08/22 01:24:26;;;;;;;;;;;;;;;18.95;94.80;101330.66;5068724;28;19970;-49
2021/08/22 01:26:53;;;;;;;;;;;;;;;18.95;94.88;101327.97;5084205;28;19978;-45
2021/08/22 01:29:20;;;;;;;;;;;;;;;18.96;94.85;101334.13;5066716;28;19925;-45
2021/08/22 01:31:47;;;;;;;;;;;;;;;18.95;94.36;101330.66;5065910;28;19924;-47
2021/08/22 01:34:14;;;;;;;;;;;;;;;18.96;94.69;101334.13;5068858;28;19928;-50
2021/08/22 01:36:41;;;;;;;;;;;;;;;18.92;94.96;101339.75;5069744;28;19932;-48
2021/08/22 01:39:08;;;;;;;;;;;;;;;18.95;94.78;101338.66;5066843;28;21516;-50
2021/08/22 01:41:35;;;;;;;;;;;;;;;18.93;94.96;101335.25;5066067;28;19981;-43
2021/08/22 01:44:02;;;;;;;;;;;;;;;18.90;94.89;101324.91;5082535;28;19982;-48
2021/08/22 01:46:29;;;;;;;;;;;;;;;18.88;95.02;101325.03;5049489;28;20338;-45
2021/08/22 01:48:56;;;;;;;;;;;;;;;18.84;94.77;101331.63;5067297;28;20314;-50
2021/08/22 01:51:29;;;;;;;;;;;;;;;18.79;94.76;101333.00;5059977;28;20408;-44
2021/08/22 01:53:59;;;;;;;;;;;;;;;18.79;94.83;101333.00;5076075;28;20332;-45
2021/08/22 01:56:31;;;;;;;;;;;;;;;18.73;94.73;101335.28;5084704;28;19924;-49
2021/08/22 01:58:58;;;;;;;;;;;;;;;18.73;94.41;101329.09;5085566;28;20371;-49
2021/08/22 02:01:25;;;;;;;;;;;;;;;18.72;94.63;101338.91;5085756;28;19932;-48
2021/08/22 02:03:54;;;;;;;;;;;;;;;18.70;94.79;101338.19;5062137;28;20398;-47
2021/08/22 02:06:26;;;;;;;;;;;;;;;18.72;94.88;101335.41;5065397;28;19925;-51
2021/08/22 02:08:58;;;;;;;;;;;;;;;18.67;94.85;101335.81;5048492;28;19924;-50
2021/08/22 02:11:26;;;;;;;;;;;;;;;18.63;94.78;101329.09;5060265;28;20002;-50
2021/08/22 02:13:54;;;;;;;;;;;;;;;18.68;94.78;101332.19;5070251;28;19925;-46
2021/08/22 02:16:26;;;;;;;;;;;;;;;18.59;94.90;101339.19;5050294;28;19932;-49
2021/08/22 02:18:55;;;;;;;;;;;;;;;18.62;95.01;101330.06;5064876;28;20526;-49
2021/08/22 02:21:22;;;;;;;;;;;;;;;18.66;95.72;101333.31;5083109;28;19925;-53
2021/08/22 02:23:49;;;;;;;;;;;;;;;18.63;95.31;101331.75;5061901;28;19978;-53
2021/08/22 02:26:18;;;;;;;;;;;;;;;18.65;95.11;101329.81;5062925;28;19928;-52
2021/08/22 02:28:54;;;;;;;;;;;;;;;18.61;95.34;101325.75;5086332;28;19931;-47
2021/08/22 02:31:20;;;;;;;;;;;;;;;18.52;95.51;101331.91;5083756;28;20379;-53
2021/08/22 02:33:47;;;;;;;;;;;;;;;18.55;95.17;101321.78;5083211;28;20395;-51
2021/08/22 02:36:14;;;;;;;;;;;;;;;18.54;95.02;101338.78;5083801;28;19928;-46
2021/08/22 02:38:41;;;;;;;;;;;;;;;18.51;95.16;101330.22;5048101;28;19943;-45
2021/08/22 02:41:07;;;;;;;;;;;;;;;18.32;95.44;101325.72;5056780;28;19924;-50
2021/08/22 02:43:34;;;;;;;;;;;;;;;18.39;95.08;101326.84;5082035;28;20460;-48
2021/08/22 02:46:01;;;;;;;;;;;;;;;18.41;94.89;101336.38;5081073;28;19928;-43
2021/08/22 02:48:27;;;;;;;;;;;;;;;18.39;94.55;101325.03;5080044;28;19932;-50
2021/08/22 02:50:54;;;;;;;;;;;;;;;18.26;95.36;101331.63;5079364;28;19944;-46
2021/08/22 02:53:21;;;;;;;;;;;;;;;18.27;95.92;101331.47;5081972;28;20409;-43
2021/08/22 02:55:47;;;;;;;;;;;;;;;18.25;95.28;101325.44;5064779;28;19925;-47
2021/08/22 02:58:14;;;;;;;;;;;;;;;18.27;95.31;101322.63;5083078;28;19935;-44
2021/08/22 03:00:41;;;;;;;;;;;;;;;18.16;95.38;101327.13;5082950;28;19928;-53
2021/08/22 03:03:08;;;;;;;;;;;;;;;18.16;95.14;101323.59;5083512;28;20383;-50
2021/08/22 03:05:34;;;;;;;;;;;;;;;18.17;94.67;101323.47;5084980;28;19932;-50
2021/08/22 03:08:02;;;;;;;;;;;;;;;18.13;95.27;101330.03;5081336;28;19924;-53
2021/08/22 03:10:28;;;;;;;;;;;;;;;18.07;94.90;101325.28;5064956;28;19924;-51
2021/08/22 03:12:55;;;;;;;;;;;;;;;18.03;94.79;101324.69;5083796;28;20688;-53
2021/08/22 03:15:22;;;;;;;;;;;;;;;18.02;94.64;101325.66;5082067;28;19924;-44
2021/08/22 03:17:49;;;;;;;;;;;;;;;18.00;94.43;101319.66;5053250;28;19925;-45
2021/08/22 03:20:16;;;;;;;;;;;;;;;17.94;94.66;101320.19;5079762;28;19924;-44
2021/08/22 03:22:43;;;;;;;;;;;;;;;17.95;94.95;101324.53;5080754;28;19924;-47
2021/08/22 03:25:10;;;;;;;;;;;;;;;17.92;95.30;101316.84;5063783;28;19924;-49
2021/08/22 03:27:37;;;;;;;;;;;;;;;17.92;95.29;101318.69;5078365;28;20008;-48
2021/08/22 03:30:04;;;;;;;;;;;;;;;17.82;95.86;101318.59;5061667;28;20337;-47
2021/08/22 03:32:30;;;;;;;;;;;;;;;17.82;96.28;101321.25;5062825;28;20436;-52
2021/08/22 03:34:57;;;;;;;;;;;;;;;17.81;96.25;101320.41;5080189;28;19924;-54
2021/08/22 03:37:24;;;;;;;;;;;;;;;17.84;96.51;101317.47;5082970;28;19924;-52
2021/08/22 03:39:51;;;;;;;;;;;;;;;17.79;97.06;101316.22;5082394;28;20033;-52
2021/08/22 03:42:17;;;;;;;;;;;;;;;17.81;96.29;101311.63;5082392;28;19928;-54
2021/08/22 03:44:44;;;;;;;;;;;;;;;17.80;96.25;101305.44;5048660;28;19950;-54
2021/08/22 03:47:10;;;;;;;;;;;;;;;17.83;96.20;101305.19;5061509;28;19924;-52
2021/08/22 03:49:37;;;;;;;;;;;;;;;17.86;95.98;101312.03;5081544;28;20323;-53
2021/08/22 03:52:04;;;;;;;;;;;;;;;17.73;96.58;101305.13;5064165;28;19973;-51
2021/08/22 03:54:31;;;;;;;;;;;;;;;17.71;96.60;101301.78;5077976;28;19943;-53
2021/08/22 03:56:57;;;;;;;;;;;;;;;17.73;96.15;101306.97;5083321;28;20321;-52
2021/08/22 03:59:24;;;;;;;;;;;;;;;17.77;96.42;101312.88;5080563;28;19924;-52
2021/08/22 04:01:50;;;;;;;;;;;;;;;17.74;96.68;101303.34;5062238;28;19970;-53
2021/08/22 04:04:17;;;;;;;;;;;;;;;17.74;96.50;101308.66;5079619;28;20011;-50
2021/08/22 04:06:48;;;;;;;;;;;;;;;17.76;96.75;101311.19;5079231;28;19935;-46
2021/08/22 04:09:16;;;;;;;;;;;;;;;17.70;96.57;101305.41;5081780;28;19929;-49
2021/08/22 04:11:44;;;;;;;;;;;;;;;17.72;96.61;101314.13;5081789;28;20383;-44
2021/08/22 04:14:11;;;;;;;;;;;;;;;17.72;96.31;101313.25;5082592;28;19924;-49
2021/08/22 04:16:37;;;;;;;;;;;;;;;17.71;96.51;101315.09;5079269;28;20360;-50
2021/08/22 04:19:04;;;;;;;;;;;;;;;17.71;96.79;101308.91;5081010;28;20387;-50
2021/08/22 04:21:31;;;;;;;;;;;;;;;17.71;96.92;101309.75;5059944;28;19928;-46
2021/08/22 04:23:57;;;;;;;;;;;;;;;17.70;96.90;101309.91;5079659;28;20379;-44
2021/08/22 04:26:24;;;;;;;;;;;;;;;17.67;97.01;101316.34;5080643;28;19989;-52
2021/08/22 04:28:50;;;;;;;;;;;;;;;17.70;97.08;101313.38;5083896;28;20531;-48
2021/08/22 04:31:17;;;;;;;;;;;;;;;17.61;97.31;101322.16;5079839;28;19924;-48
2021/08/22 04:33:44;;;;;;;;;;;;;;;17.65;97.25;101317.44;5082104;28;19974;-47
2021/08/22 04:36:11;;;;;;;;;;;;;;;17.66;96.88;101317.28;5059927;28;20027;-44
2021/08/22 04:38:37;;;;;;;;;;;;;;;17.67;96.58;101326.09;5078267;28;20334;-49
2021/08/22 04:41:04;;;;;;;;;;;;;;;17.64;96.76;101321.94;5080029;28;19925;-46
2021/08/22 04:43:31;;;;;;;;;;;;;;;17.61;96.78;101322.16;5080487;28;19931;-45
2021/08/22 04:45:57;;;;;;;;;;;;;;;17.58;97.33;101323.28;5078718;28;19924;-49
2021/08/22 04:48:24;;;;;;;;;;;;;;;17.55;97.04;101334.19;5065119;28;19924;-48
2021/08/22 04:50:51;;;;;;;;;;;;;;;17.59;97.11;101329.47;5081649;28;20407;-52
2021/08/22 04:53:18;;;;;;;;;;;;;;;17.63;96.79;101328.22;5080987;28;20405;-47
2021/08/22 04:55:44;;;;;;;;;;;;;;;17.52;97.15;101334.47;5059496;28;19947;-46
2021/08/22 04:58:11;;;;;;;;;;;;;;;17.49;96.79;101331.22;5080552;28;19928;-50
2021/08/22 05:00:38;;;;;;;;;;;;;;;17.49;96.94;101344.50;5081872;28;19989;-53
2021/08/22 05:03:05;;;;;;;;;;;;;;;17.50;97.05;101335.56;5083175;28;19924;-53
2021/08/22 05:05:32;;;;;;;;;;;;;;;17.53;96.85;101345.94;5078309;28;19924;-53
2021/08/22 05:07:58;;;;;;;;;;;;;;;17.54;96.67;101352.94;5078238;28;19925;-45
2021/08/22 05:10:25;;;;;;;;;;;;;;;17.53;97.10;101348.59;5062526;28;20364;-54
2021/08/22 05:12:52;;;;;;;;;;;;;;;17.56;96.73;101353.63;5063286;28;19925;-53
2021/08/22 05:15:19;;;;;;;;;;;;;;;17.57;96.92;101342.03;5080987;28;19985;-54
2021/08/22 05:17:46;;;;;;;;;;;;;;;17.59;96.98;101342.75;5080280;28;19955;-47
2021/08/22 05:20:12;;;;;;;;;;;;;;;17.59;97.49;101348.06;5059422;28;19950;-49
2021/08/22 05:22:39;;;;;;;;;;;;;;;17.57;97.44;101344.69;5079961;28;19985;-49
2021/08/22 05:25:06;;;;;;;;;;;;;;;17.62;97.16;101345.13;5061495;28;19924;-50
2021/08/22 05:27:33;;;;;;;;;;;;;;;17.67;97.05;101350.91;5081951;28;19925;-51
2021/08/22 05:29:59;;;;;;;;;;;;;;;17.67;96.79;101352.69;5081276;28;19925;-50
2021/08/22 05:32:26;;;;;;;;;;;;;;;17.69;96.57;101350.75;5081744;28;19978;-52
2021/08/22 05:34:52;;;;;;;;;;;;;;;17.69;96.80;101348.09;5080217;28;19925;-54
2021/08/22 05:37:19;;;;;;;;;;;;;;;17.66;96.87;101354.53;5078467;28;20429;-55
2021/08/22 05:39:48;;;;;;;;;;;;;;;17.66;97.05;101349.22;5061206;28;19924;-54
2021/08/22 05:42:14;;;;;;;;;;;;;;;17.66;97.46;101345.72;5080916;28;20284;-53
2021/08/22 05:44:41;;;;;;;;;;;;;;;17.69;97.33;101348.94;5080971;28;20340;-52
2021/08/22 05:47:07;;;;;;;;;;;;;;;17.75;97.25;101350.22;5059733;28;19932;-52
2021/08/22 05:49:38;;;;;;;;;;;;;;;17.78;96.97;101349.97;5078269;28;20372;-48
2021/08/22 05:52:05;;;;;;;;;;;;;;;17.81;96.91;101348.84;5074332;28;20391;-49
2021/08/22 05:54:32;;;;;;;;;;;;;;;17.81;96.85;101354.19;5078564;28;19924;-49
2021/08/22 05:56:58;;;;;;;;;;;;;;;17.90;96.85;101346.22;5082580;28;20372;-48
2021/08/22 05:59:25;;;;;;;;;;;;;;;17.90;97.12;101356.00;5080735;28;20426;-44
2021/08/22 06:01:52;;;;;;;;;;;;;;;17.99;97.38;101357.88;5068595;28;19970;-48
2021/08/22 06:04:19;;;;;;;;;;;;;;;18.02;96.86;101354.13;5082243;28;19962;-46
2021/08/22 06:06:46;;;;;;;;;;;;;;;18.04;97.01;101366.31;5082166;28;19931;-49
2021/08/22 06:09:12;;;;;;;;;;;;;;;18.06;96.64;101359.03;5081135;28;19943;-47
2021/08/22 06:11:39;;;;;;;;;;;;;;;18.09;96.11;101363.22;5083138;28;20414;-44
2021/08/22 06:14:06;;;;;;;;;;;;;;;18.11;96.04;101366.59;5083424;28;19932;-45
2021/08/22 06:16:32;;;;;;;;;;;;;;;18.12;95.72;101362.97;5064184;28;19929;-45
2021/08/22 06:18:59;;;;;;;;;;;;;;;18.22;95.74;101357.66;5078080;28;19935;-45
2021/08/22 06:21:26;;;;;;;;;;;;;;;18.29;95.87;101368.59;5067058;28;20279;-46
2021/08/22 06:23:57;;;;;;;;;;;;;;;18.39;95.03;101364.97;5081703;28;19939;-46
2021/08/22 06:26:25;;;;;;;;;;;;;;;18.43;95.25;101365.53;5072507;28;19930;-54
2021/08/22 06:28:52;;;;;;;;;;;;;;;18.50;94.85;101368.47;5073994;28;19928;-55
2021/08/22 06:31:18;;;;;;;;;;;;;;;18.57;95.07;101369.63;5057364;28;19932;-55
2021/08/22 06:33:45;;;;;;;;;;;;;;;18.55;93.70;101371.56;5056852;28;19925;-55
2021/08/22 06:36:13;;;;;;;;;;;;;;;18.61;93.41;101367.50;5074807;28;20394;-44
2021/08/22 06:38:39;;;;;;;;;;;;;;;18.59;93.26;101367.66;5076809;28;19928;-46
2021/08/22 06:41:06;;;;;;;;;;;;;;;18.56;92.92;101367.94;5079659;28;20459;-45
2021/08/22 06:43:32;;;;;;;;;;;;;;;18.57;92.52;101367.78;5072376;28;20338;-49
2021/08/22 06:45:59;;;;;;;;;;;;;;;18.54;92.06;101369.88;5074188;28;20287;-50
2021/08/22 06:48:26;;;;;;;;;;;;;;;18.53;91.97;101371.72;5064099;28;19932;-49
2021/08/22 06:50:53;;;;;;;;;;;;;;;18.53;92.48;101365.56;5074154;28;19929;-45
2021/08/22 06:53:20;;;;;;;;;;;;;;;18.57;92.01;101373.13;5073954;28;19924;-46
2021/08/22 06:55:47;;;;;;;;;;;;;;;18.60;91.35;101377.31;5087582;28;19924;-48
2021/08/22 06:58:13;;;;;;;;;;;;;;;18.59;91.16;101376.47;5084393;28;19931;-46
2021/08/22 07:00:40;;;;;;;;;;;;;;;18.63;91.15;101381.53;5074321;28;19924;-47
2021/08/22 07:03:08;;;;;;;;;;;;;;;18.65;90.79;101375.09;5090025;28;20015;-53
2021/08/22 07:05:35;;;;;;;;;;;;;;;18.59;91.01;101383.63;5092092;28;19994;-53
2021/08/22 07:08:01;;;;;;;;;;;;;;;18.66;91.24;101389.25;5073637;28;19924;-52
2021/08/22 07:10:28;;;;;;;;;;;;;;;18.69;91.87;101391.63;5048687;28;19924;-53
2021/08/22 07:12:55;;;;;;;;;;;;;;;18.70;91.37;101386.16;5092705;28;19932;-49
2021/08/22 07:15:22;;;;;;;;;;;;;;;18.73;91.03;101388.56;5061198;28;19932;-53
2021/08/22 07:17:49;;;;;;;;;;;;;;;18.74;90.41;101390.22;5070914;28;19967;-53
2021/08/22 07:20:15;;;;;;;;;;;;;;;18.77;89.84;101388.25;5074166;28;19932;-54
2021/08/22 07:22:42;;;;;;;;;;;;;;;18.82;90.01;101397.50;5072782;28;20030;-46
2021/08/22 07:25:09;;;;;;;;;;;;;;;18.76;89.78;101400.75;5070719;28;20387;-50
2021/08/22 07:27:35;;;;;;;;;;;;;;;18.80;90.07;101398.63;5056110;28;19993;-50
2021/08/22 07:30:03;;;;;;;;;;;;;;;18.75;89.37;101399.88;5074336;28;19985;-48
2021/08/22 07:32:29;;;;;;;;;;;;;;;18.81;88.91;101398.47;5056136;28;19978;-48
2021/08/22 07:34:56;;;;;;;;;;;;;;;18.76;88.73;101406.09;5054453;28;20438;-47
2021/08/22 07:37:22;;;;;;;;;;;;;;;18.79;88.93;101403.13;5071177;28;20007;-49
2021/08/22 07:39:49;;;;;;;;;;;;;;;18.78;89.17;101396.09;5073218;28;19931;-52
2021/08/22 07:42:16;;;;;;;;;;;;;;;18.80;88.97;101403.97;5069892;28;20379;-53
2021/08/22 07:44:42;;;;;;;;;;;;;;;18.88;87.93;101410.31;5069481;28;20268;-54
2021/08/22 07:47:09;;;;;;;;;;;;;;;18.90;87.39;101410.16;5073395;28;19970;-54
2021/08/22 07:49:36;;;;;;;;;;;;;;;18.95;87.64;101405.28;5073620;28;19924;-54
2021/08/22 07:52:02;;;;;;;;;;;;;;;18.94;87.26;101403.56;5053282;28;20391;-54
2021/08/22 07:54:29;;;;;;;;;;;;;;;18.91;87.46;101410.03;5064477;28;19970;-54
2021/08/22 07:56:56;;;;;;;;;;;;;;;19.00;87.04;101404.84;5070959;28;20326;-53
2021/08/22 07:59:23;;;;;;;;;;;;;;;19.09;86.64;101404.00;5073326;28;20441;-54
2021/08/22 08:01:49;;;;;;;;;;;;;;;19.20;86.23;101405.66;5071558;28;19928;-51
2021/08/22 08:04:16;;;;;;;;;;;;;;;19.36;86.40;101405.91;5070429;28;19931;-45
2021/08/22 08:06:42;;;;;;;;;;;;;;;19.48;86.10;101413.72;5072551;28;19982;-48
2021/08/22 08:09:09;;;;;;;;;;;;;;;19.57;85.46;101404.84;5073426;28;20406;-47
2021/08/22 08:11:36;;;;;;;;;;;;;;;19.73;85.76;101405.06;5054604;28;19931;-47
2021/08/22 08:14:02;;;;;;;;;;;;;;;19.86;84.73;101407.44;5072791;28;20307;-45
2021/08/22 08:16:29;;;;;;;;;;;;;;;19.98;83.72;101408.09;5054484;28;19924;-49
2021/08/22 08:18:56;;;;;;;;;;;;;;;19.99;83.40;101417.78;5070918;28;19924;-47
2021/08/22 08:21:22;;;;;;;;;;;;;;;20.08;82.61;101421.38;5053001;28;20432;-49
2021/08/22 08:23:49;;;;;;;;;;;;;;;19.95;80.68;101419.06;5057526;28;20019;-48
2021/08/22 08:26:16;;;;;;;;;;;;;;;20.03;81.73;101421.84;5062043;28;19936;-51
2021/08/22 08:28:43;;;;;;;;;;;;;;;20.07;81.38;101428.56;5044228;28;19968;-54
2021/08/22 08:31:10;;;;;;;;;;;;;;;20.11;80.44;101415.75;5062196;28;19929;-47
2021/08/22 08:33:37;;;;;;;;;;;;;;;20.22;80.57;101418.22;5062133;28;19928;-45
2021/08/22 08:36:04;;;;;;;;;;;;;;;20.32;80.57;101420.81;5058386;28;20391;-45
2021/08/22 08:38:30;;;;;;;;;;;;;;;20.37;79.88;101413.22;5063779;28;20361;-45
2021/08/22 08:41:01;;;;;;;;;;;;;;;20.24;79.77;101410.88;5064915;28;20003;-44
2021/08/22 08:43:28;;;;;;;;;;;;;;;20.44;80.46;101416.13;5046724;28;19948;-48
2021/08/22 08:45:59;;;;;;;;;;;;;;;20.56;79.09;101414.06;5060101;28;20283;-48
2021/08/22 08:48:34;;;;;;;;;;;;;;;20.74;79.82;101414.09;5050431;28;19956;-46
2021/08/22 08:51:01;;;;;;;;;;;;;;;20.85;79.34;101415.72;5076383;28;19928;-46
2021/08/22 08:53:29;;;;;;;;;;;;;;;21.01;78.85;101410.50;5092710;28;20282;-48
2021/08/22 08:55:56;;;;;;;;;;;;;;;21.02;77.88;101420.19;5076998;28;19928;-49
2021/08/22 08:58:23;;;;;;;;;;;;;;;21.09;77.69;101423.06;5050796;28;20385;-49
2021/08/22 09:00:50;;;;;;;;;;;;;;;21.07;76.64;101419.72;5070607;28;20303;-49
2021/08/22 09:03:17;;;;;;;;;;;;;;;21.15;77.10;101417.13;5069313;28;19924;-49
2021/08/22 09:06:13;;;;;;;;;;;;;;;21.23;75.77;101416.34;5069627;28;19925;-49
2021/08/22 09:08:46;;;;;;;;;;;;;;;21.25;75.34;101414.34;5006634;28;19957;-54
2021/08/22 09:11:15;;;;;;;;;;;;;;;21.29;75.39;101421.06;5068763;28;19930;-56
2021/08/22 09:14:00;;;;;;;;;;;;;;;21.18;74.87;101419.47;5092376;28;19924;-55
2021/08/22 09:16:45;;;;;;;;;;;;;;;21.35;74.12;101416.91;5063427;28;20015;-55
2021/08/22 09:19:33;;;;;;;;;;;;;;;21.59;74.18;101418.94;5059262;28;19924;-54
2021/08/22 09:22:18;;;;;;;;;;;;;;;21.60;73.41;101409.91;5057519;28;19932;-55
2021/08/22 09:25:19;;;;;;;;;;;;;;;21.66;73.60;101411.94;5042317;28;20479;-54
2021/08/22 09:27:51;;;;;;;;;;;;;;;22.00;73.74;101415.63;5042803;28;19940;-54
2021/08/22 09:30:37;;;;;;;;;;;;;;;21.90;73.23;101411.22;5061372;28;19947;-54
2021/08/22 09:33:23;;;;;;;;;;;;;;;22.20;72.59;101413.53;5065723;28;20395;-53
2021/08/22 09:35:59;;;;;;;;;;;;;;;22.27;72.30;101410.00;5065899;28;19925;-54
2021/08/22 09:38:44;;;;;;;;;;;;;;;22.41;72.50;101413.91;5062682;28;19932;-55
2021/08/22 09:41:20;;;;;;;;;;;;;;;22.37;70.74;101417.09;5047605;28;19924;-55
2021/08/22 09:44:05;;;;;;;;;;;;;;;22.47;70.33;101419.63;5063157;28;20765;-56
2021/08/22 09:46:52;;;;;;;;;;;;;;;22.36;71.29;101421.63;5061516;28;20384;-54
2021/08/22 09:49:23;;;;;;;;;;;;;;;22.37;70.43;101425.97;5060780;28;20396;-54
2021/08/22 09:52:09;;;;;;;;;;;;;;;22.39;70.34;101428.50;5063031;28;19925;-51
2021/08/22 09:54:47;;;;;;;;;;;;;;;22.26;70.50;101431.59;5063466;28;19932;-47
2021/08/22 09:57:29;;;;;;;;;;;;;;;22.20;69.68;101430.41;5062545;28;19978;-44
2021/08/22 10:00:15;;;;;;;;;;;;;;;22.18;70.09;101423.53;5062003;28;19956;-49
2021/08/22 10:02:44;;;;;;;;;;;;;;;22.00;70.90;101424.47;5063380;28;20342;-54
2021/08/22 10:05:18;;;;;;;;;;;;;;;22.03;70.04;101426.00;5062982;28;19924;-54
2021/08/22 10:07:47;;;;;;;;;;;;;;;22.00;70.20;101432.50;5064616;28;19932;-48
2021/08/22 10:10:16;;;;;;;;;;;;;;;22.07;70.52;101425.53;5062559;28;19955;-47
2021/08/22 10:12:42;;;;;;;;;;;;;;;22.11;70.23;101426.03;5053124;28;19928;-45
2021/08/22 10:15:10;;;;;;;;;;;;;;;22.11;70.00;101426.88;5041308;28;19935;-45
2021/08/22 10:17:36;;;;;;;;;;;;;;;22.05;70.42;101427.53;5063359;28;19924;-47
2021/08/22 10:20:03;;;;;;;;;;;;;;;21.92;71.42;101435.16;5046588;28;19947;-50
2021/08/22 10:22:30;;;;;;;;;;;;;;;21.94;72.04;101430.50;5063310;28;19928;-54
2021/08/22 10:24:59;;;;;;;;;;;;;;;21.83;72.27;101426.25;5064420;28;19924;-55
2021/08/22 10:27:29;;;;;;;;;;;;;;;21.80;72.66;101423.91;5062218;28;20399;-46
2021/08/22 10:29:57;;;;;;;;;;;;;;;21.76;72.61;101420.72;5069240;28;20367;-47
2021/08/22 10:32:24;;;;;;;;;;;;;;;21.75;72.85;101415.53;5082761;28;19965;-49
2021/08/22 10:35:10;;;;;;;;;;;;;;;21.75;72.78;101418.19;5069426;28;20291;-49
2021/08/22 10:37:37;;;;;;;;;;;;;;;21.80;71.98;101420.38;5061404;28;20300;-50
2021/08/22 10:40:22;;;;;;;;;;;;;;;21.63;71.81;101420.28;5075597;28;20279;-50
2021/08/22 10:43:12;;;;;;;;;;;;;;;21.63;72.66;101420.28;5073213;28;20299;-55
2021/08/22 10:45:57;;;;;;;;;;;;;;;21.53;73.10;101414.19;5064169;28;19925;-49
2021/08/22 10:48:24;;;;;;;;;;;;;;;21.41;73.43;101411.78;5055393;28;20291;-49
2021/08/22 10:50:57;;;;;;;;;;;;;;;21.62;73.22;101415.94;5054160;28;19942;-55
2021/08/22 10:53:30;;;;;;;;;;;;;;;21.54;73.47;101411.41;5073228;28;20314;-55
2021/08/22 10:55:57;;;;;;;;;;;;;;;21.61;73.88;101419.63;5056871;28;19925;-54
2021/08/22 10:58:43;;;;;;;;;;;;;;;21.71;74.34;101420.34;5040240;28;19924;-55
2021/08/22 11:01:18;;;;;;;;;;;;;;;21.74;73.45;101420.00;5074383;28;19925;-53
2021/08/22 11:04:01;;;;;;;;;;;;;;;21.66;73.03;101417.28;5054651;28;19935;-54
2021/08/22 11:06:27;;;;;;;;;;;;;;;21.73;73.02;101414.81;5071900;28;20390;-53
2021/08/22 11:08:54;;;;;;;;;;;;;;;21.92;73.63;101416.41;5073381;28;19924;-53
2021/08/22 11:11:21;;;;;;;;;;;;;;;21.92;71.88;101416.41;5071523;28;19978;-54
2021/08/22 11:13:51;;;;;;;;;;;;;;;22.08;71.04;101419.16;5071944;28;19974;-52
2021/08/22 11:16:20;;;;;;;;;;;;;;;22.38;71.13;101421.47;5073955;28;20397;-54
2021/08/22 11:18:47;;;;;;;;;;;;;;;22.47;71.71;101416.94;5053005;28;20375;-53
2021/08/22 11:21:14;;;;;;;;;;;;;;;22.68;70.50;101416.50;5053948;28;19931;-50
2021/08/22 11:23:40;;;;;;;;;;;;;;;22.72;69.46;101412.47;5074055;28;19931;-46
2021/08/22 11:26:08;;;;;;;;;;;;;;;22.98;69.34;101412.31;5072724;28;19978;-50
2021/08/22 11:28:35;;;;;;;;;;;;;;;23.38;67.87;101410.63;5051675;28;19928;-51
2021/08/22 11:31:11;;;;;;;;;;;;;;;23.68;65.12;101410.03;5072793;28;20338;-48
2021/08/22 11:33:38;;;;;;;;;;;;;;;23.87;64.25;101403.41;5056009;28;19967;-51
2021/08/22 11:36:05;;;;;;;;;;;;;;;24.03;64.25;101397.19;5073617;28;19925;-52
2021/08/22 11:38:31;;;;;;;;;;;;;;;24.03;63.14;101398.00;5055879;28;19924;-48
2021/08/22 11:41:02;;;;;;;;;;;;;;;24.17;64.12;101406.34;5054520;28;20424;-48
2021/08/22 11:43:30;;;;;;;;;;;;;;;23.99;64.13;101403.91;5068810;28;20414;-47
2021/08/22 11:45:57;;;;;;;;;;;;;;;24.04;65.66;101402.38;5072559;28;19982;-54
2021/08/22 11:48:24;;;;;;;;;;;;;;;24.44;62.42;101396.94;5055361;28;20363;-55
2021/08/22 11:50:51;;;;;;;;;;;;;;;24.30;60.78;101406.59;5054394;28;19932;-56
2021/08/22 11:53:18;;;;;;;;;;;;;;;24.21;64.11;101405.78;5071858;28;19951;-54
2021/08/22 11:55:45;;;;;;;;;;;;;;;24.52;61.37;101398.75;5053114;28;19925;-54
2021/08/22 11:58:19;;;;;;;;;;;;;;;24.72;60.91;101407.16;5055121;28;19952;-55
2021/08/22 12:00:47;;;;;;;;;;;;;;;24.53;60.78;101411.13;5071804;28;19933;-54
2021/08/22 12:03:14;;;;;;;;;;;;;;;24.34;61.32;101409.75;5073293;28;20295;-54
2021/08/22 12:05:51;;;;;;;;;;;;;;;24.86;60.99;101408.25;5073162;28;19966;-55
2021/08/22 12:08:18;;;;;;;;;;;;;;;25.09;58.95;101405.53;5073343;28;19925;-53
2021/08/22 12:10:44;;;;;;;;;;;;;;;25.26;58.16;101414.28;5073002;28;19932;-55
2021/08/22 12:13:15;;;;;;;;;;;;;;;25.69;58.24;101406.44;5072750;28;20018;-56
2021/08/22 12:15:42;;;;;;;;;;;;;;;25.94;56.44;101406.97;5073344;28;19928;-56
2021/08/22 12:18:28;;;;;;;;;;;;;;;26.09;54.65;101404.25;5055467;28;19929;-56
2021/08/22 12:21:16;;;;;;;;;;;;;;;26.51;55.21;101409.09;5072827;28;19931;-52
2021/08/22 12:23:44;;;;;;;;;;;;;;;26.82;54.06;101416.88;5052459;28;19924;-53
2021/08/22 12:26:16;;;;;;;;;;;;;;;27.00;52.95;101411.00;5070818;28;19983;-55
2021/08/22 12:28:43;;;;;;;;;;;;;;;27.01;53.28;101420.78;5072742;28;19974;-54
2021/08/22 12:31:10;;;;;;;;;;;;;;;27.08;52.11;101410.88;5055011;28;19924;-54
2021/08/22 12:33:41;;;;;;;;;;;;;;;27.13;52.64;101407.56;5055194;28;20405;-54
2021/08/22 12:36:34;;;;;;;;;;;;;;;27.30;52.68;101405.41;5055113;28;19931;-55
2021/08/22 12:39:01;;;;;;;;;;;;;;;27.62;50.81;101403.13;5070190;28;20028;-54
2021/08/22 12:41:27;;;;;;;;;;;;;;;27.98;50.21;101394.78;5071530;28;19940;-55
2021/08/22 12:43:55;;;;;;;;;;;;;;;28.14;49.12;101392.75;5046481;28;20015;-54